Aviation Digital Data Service (ADDS)

Output produced by METARs form (1814 UTC 24 June 2019)
found at http://www.aviationweather.gov/metar/data/
 
Forecast for: EHVK (VOLKEL RNLAFB , NL)
Text: TAF EHVK 241644Z 2417/2505 VRB02KT CAVOK
Forecast period: 1700 to 2100 UTC 24 June 2019
Forecast type: FROM: standard forecast or significant change
Winds: variable direction winds at 2 MPH (2 knots; 1.0 m/s)
Visibility: 6 or more miles 10+ km)
Ceiling: unknown
Clouds: missing
Weather: NSW  (no significant weather)
Text: BECMG 2421/2424 12007KT
Forecast period: 2100 UTC 24 June 2019 to 0500 UTC 25 June 2019
Forecast type: BECOMING: Conditions expected to become as follows by 0000 UTC 25 June 2019
Winds: from the ESE (120 degrees) at 8 MPH (7 knots; 3.6 m/s)
Visibility: 6 or more miles 10+ km)
Ceiling: unknown
Clouds: missing
Weather: NSW  (no significant weather)